sensor_id;sensor_type;location;lat;lon;timestamp;pressure;altitude;pressure_sealevel;temperature;humidity
22580;BME280;11456;47.030;15.396;2023-02-19T00:00:54;97733.44;;;3.49;94.79
22580;BME280;11456;47.030;15.396;2023-02-19T00:03:21;97726.09;;;3.40;93.95
22580;BME280;11456;47.030;15.396;2023-02-19T00:05:47;97723.00;;;3.33;93.87
22580;BME280;11456;47.030;15.396;2023-02-19T00:08:14;97726.41;;;3.35;93.32
22580;BME280;11456;47.030;15.396;2023-02-19T00:10:40;97722.81;;;3.36;93.80
22580;BME280;11456;47.030;15.396;2023-02-19T00:13:07;97719.75;;;3.91;90.87
22580;BME280;11456;47.030;15.396;2023-02-19T00:15:33;97731.63;;;3.62;91.20
22580;BME280;11456;47.030;15.396;2023-02-19T00:18:00;97736.88;;;3.51;93.27
22580;BME280;11456;47.030;15.396;2023-02-19T00:20:27;97730.88;;;3.35;93.14
22580;BME280;11456;47.030;15.396;2023-02-19T00:22:53;97730.88;;;3.09;94.08
22580;BME280;11456;47.030;15.396;2023-02-19T00:25:20;97720.03;;;3.25;94.81
22580;BME280;11456;47.030;15.396;2023-02-19T00:27:46;97721.31;;;3.07;93.82
22580;BME280;11456;47.030;15.396;2023-02-19T00:30:13;97721.94;;;3.10;94.86
22580;BME280;11456;47.030;15.396;2023-02-19T00:32:39;97726.72;;;3.05;95.29
22580;BME280;11456;47.030;15.396;2023-02-19T00:35:09;97726.84;;;3.16;95.99
22580;BME280;11456;47.030;15.396;2023-02-19T00:37:35;97734.28;;;4.60;85.56
22580;BME280;11456;47.030;15.396;2023-02-19T00:40:02;97736.63;;;3.54;90.93
22580;BME280;11456;47.030;15.396;2023-02-19T00:42:28;97744.28;;;3.20;93.26
22580;BME280;11456;47.030;15.396;2023-02-19T00:44:55;97734.47;;;3.08;94.75
22580;BME280;11456;47.030;15.396;2023-02-19T00:47:21;97744.28;;;3.20;94.29
22580;BME280;11456;47.030;15.396;2023-02-19T00:49:48;97743.84;;;3.27;94.01
22580;BME280;11456;47.030;15.396;2023-02-19T00:52:14;97753.41;;;3.04;94.13
22580;BME280;11456;47.030;15.396;2023-02-19T00:54:41;97746.22;;;3.44;93.16
22580;BME280;11456;47.030;15.396;2023-02-19T00:57:07;97737.91;;;3.36;93.21
22580;BME280;11456;47.030;15.396;2023-02-19T00:59:34;97741.09;;;3.41;93.33
22580;BME280;11456;47.030;15.396;2023-02-19T01:02:02;97730.97;;;3.20;94.53
22580;BME280;11456;47.030;15.396;2023-02-19T01:04:28;97736.94;;;3.11;95.14
22580;BME280;11456;47.030;15.396;2023-02-19T01:06:55;97718.50;;;3.08;96.03
22580;BME280;11456;47.030;15.396;2023-02-19T01:09:22;97716.19;;;3.16;95.91
22580;BME280;11456;47.030;15.396;2023-02-19T01:11:48;97703.94;;;3.14;95.65
22580;BME280;11456;47.030;15.396;2023-02-19T01:14:15;97714.16;;;3.07;96.01
22580;BME280;11456;47.030;15.396;2023-02-19T01:16:41;97695.41;;;3.72;92.99
22580;BME280;11456;47.030;15.396;2023-02-19T01:19:08;97728.13;;;3.23;94.45
22580;BME280;11456;47.030;15.396;2023-02-19T01:21:34;97701.59;;;2.97;95.77
22580;BME280;11456;47.030;15.396;2023-02-19T01:24:01;97708.53;;;3.12;96.07
22580;BME280;11456;47.030;15.396;2023-02-19T01:26:29;97709.59;;;3.09;96.56
22580;BME280;11456;47.030;15.396;2023-02-19T01:28:57;97722.13;;;3.07;96.22
22580;BME280;11456;47.030;15.396;2023-02-19T01:31:23;97706.16;;;3.07;97.31
22580;BME280;11456;47.030;15.396;2023-02-19T01:33:54;97695.75;;;3.04;96.52
22580;BME280;11456;47.030;15.396;2023-02-19T01:36:21;97695.13;;;3.13;96.73
22580;BME280;11456;47.030;15.396;2023-02-19T01:38:48;97697.56;;;3.16;96.41
22580;BME280;11456;47.030;15.396;2023-02-19T01:41:16;97692.47;;;3.13;96.52
22580;BME280;11456;47.030;15.396;2023-02-19T01:43:57;97699.03;;;3.20;96.49
22580;BME280;11456;47.030;15.396;2023-02-19T01:46:27;97696.59;;;3.43;96.61
22580;BME280;11456;47.030;15.396;2023-02-19T01:48:55;97692.78;;;3.34;95.61
22580;BME280;11456;47.030;15.396;2023-02-19T01:51:22;97687.66;;;3.31;95.85
22580;BME280;11456;47.030;15.396;2023-02-19T01:53:51;97694.16;;;3.40;95.92
22580;BME280;11456;47.030;15.396;2023-02-19T01:56:19;97691.81;;;3.22;97.31
22580;BME280;11456;47.030;15.396;2023-02-19T01:58:47;97684.50;;;3.88;94.82
22580;BME280;11456;47.030;15.396;2023-02-19T02:01:13;97679.13;;;3.64;94.16
22580;BME280;11456;47.030;15.396;2023-02-19T02:03:40;97671.69;;;3.56;94.95
22580;BME280;11456;47.030;15.396;2023-02-19T02:08:36;97679.88;;;3.53;96.51
22580;BME280;11456;47.030;15.396;2023-02-19T02:11:22;97687.56;;;3.58;96.70
22580;BME280;11456;47.030;15.396;2023-02-19T02:13:48;97700.00;;;3.70;95.94
22580;BME280;11456;47.030;15.396;2023-02-19T02:16:23;97692.88;;;3.58;95.59
22580;BME280;11456;47.030;15.396;2023-02-19T02:21:34;97685.09;;;3.42;96.21
22580;BME280;11456;47.030;15.396;2023-02-19T02:24:31;97688.28;;;3.60;95.59
22580;BME280;11456;47.030;15.396;2023-02-19T02:33:00;97698.31;;;3.56;95.75
22580;BME280;11456;47.030;15.396;2023-02-19T02:35:00;97680.53;;;3.57;95.98
22580;BME280;11456;47.030;15.396;2023-02-19T02:37:29;97686.31;;;3.87;94.93
22580;BME280;11456;47.030;15.396;2023-02-19T02:39:58;97679.97;;;3.77;95.15
22580;BME280;11456;47.030;15.396;2023-02-19T02:42:25;97669.91;;;3.81;95.43
22580;BME280;11456;47.030;15.396;2023-02-19T02:45:19;97663.69;;;3.56;95.71
22580;BME280;11456;47.030;15.396;2023-02-19T02:50:43;97667.84;;;3.48;97.53
22580;BME280;11456;47.030;15.396;2023-02-19T02:53:17;97663.78;;;3.55;97.46
22580;BME280;11456;47.030;15.396;2023-02-19T02:56:04;97668.47;;;3.64;96.69
22580;BME280;11456;47.030;15.396;2023-02-19T02:58:33;97667.00;;;3.47;96.88
22580;BME280;11456;47.030;15.396;2023-02-19T03:01:04;97660.50;;;4.00;95.43
22580;BME280;11456;47.030;15.396;2023-02-19T03:03:53;97658.78;;;3.99;93.34
22580;BME280;11456;47.030;15.396;2023-02-19T03:06:20;97653.13;;;3.68;95.43
22580;BME280;11456;47.030;15.396;2023-02-19T03:08:54;97664.41;;;3.71;96.19
22580;BME280;11456;47.030;15.396;2023-02-19T03:11:22;97664.03;;;3.52;96.47
22580;BME280;11456;47.030;15.396;2023-02-19T03:14:10;97659.28;;;3.68;96.19
22580;BME280;11456;47.030;15.396;2023-02-19T03:16:59;97658.03;;;3.61;96.27
22580;BME280;11456;47.030;15.396;2023-02-19T03:19:48;97654.72;;;3.70;96.35
22580;BME280;11456;47.030;15.396;2023-02-19T03:24:44;97659.50;;;3.65;96.28
22580;BME280;11456;47.030;15.396;2023-02-19T03:27:31;97660.59;;;3.62;95.89
22580;BME280;11456;47.030;15.396;2023-02-19T03:30:00;97648.44;;;3.58;96.51
22580;BME280;11456;47.030;15.396;2023-02-19T03:34:57;97657.28;;;3.59;96.53
22580;BME280;11456;47.030;15.396;2023-02-19T03:37:29;97669.56;;;3.49;96.77
22580;BME280;11456;47.030;15.396;2023-02-19T03:39:59;97659.09;;;3.58;96.60
22580;BME280;11456;47.030;15.396;2023-02-19T03:42:30;97656.88;;;3.40;95.93
22580;BME280;11456;47.030;15.396;2023-02-19T03:45:04;97668.38;;;3.28;96.75
22580;BME280;11456;47.030;15.396;2023-02-19T03:47:40;97661.47;;;3.38;97.27
22580;BME280;11456;47.030;15.396;2023-02-19T03:55:27;97669.78;;;3.20;97.96
22580;BME280;11456;47.030;15.396;2023-02-19T03:58:03;97668.81;;;3.09;97.28
22580;BME280;11456;47.030;15.396;2023-02-19T04:00:31;97661.91;;;3.06;97.79
22580;BME280;11456;47.030;15.396;2023-02-19T04:03:06;97664.25;;;2.98;98.00
22580;BME280;11456;47.030;15.396;2023-02-19T04:05:36;97667.66;;;3.13;98.08
22580;BME280;11456;47.030;15.396;2023-02-19T04:08:07;97662.13;;;3.16;97.61
22580;BME280;11456;47.030;15.396;2023-02-19T04:10:40;97668.72;;;3.10;97.36
22580;BME280;11456;47.030;15.396;2023-02-19T04:13:42;97660.53;;;3.13;98.01
22580;BME280;11456;47.030;15.396;2023-02-19T04:16:01;97657.44;;;3.07;98.51
22580;BME280;11456;47.030;15.396;2023-02-19T04:18:30;97661.06;;;3.18;98.76
22580;BME280;11456;47.030;15.396;2023-02-19T04:20:58;97652.66;;;3.25;98.21
22580;BME280;11456;47.030;15.396;2023-02-19T04:23:25;97646.56;;;3.22;97.42
22580;BME280;11456;47.030;15.396;2023-02-19T04:25:55;97647.22;;;3.13;97.20
22580;BME280;11456;47.030;15.396;2023-02-19T04:28:23;97649.66;;;3.16;97.28
22580;BME280;11456;47.030;15.396;2023-02-19T04:30:49;97641.91;;;3.13;97.43
22580;BME280;11456;47.030;15.396;2023-02-19T04:33:16;97642.31;;;3.07;97.73
22580;BME280;11456;47.030;15.396;2023-02-19T04:35:42;97637.41;;;3.01;98.13
22580;BME280;11456;47.030;15.396;2023-02-19T04:38:09;97633.38;;;3.21;97.75
22580;BME280;11456;47.030;15.396;2023-02-19T04:40:35;97634.97;;;2.98;96.98
22580;BME280;11456;47.030;15.396;2023-02-19T04:43:02;97635.59;;;2.89;96.80
22580;BME280;11456;47.030;15.396;2023-02-19T04:45:28;97641.88;;;2.88;96.82
22580;BME280;11456;47.030;15.396;2023-02-19T04:47:56;97650.41;;;2.80;97.14
22580;BME280;11456;47.030;15.396;2023-02-19T04:50:23;97640.81;;;2.78;98.05
22580;BME280;11456;47.030;15.396;2023-02-19T04:52:49;97638.91;;;3.05;98.38
22580;BME280;11456;47.030;15.396;2023-02-19T04:55:16;97643.81;;;3.11;97.60
22580;BME280;11456;47.030;15.396;2023-02-19T04:57:43;97636.34;;;3.16;97.60
22580;BME280;11456;47.030;15.396;2023-02-19T05:00:11;97640.06;;;3.52;96.66
22580;BME280;11456;47.030;15.396;2023-02-19T05:02:38;97633.22;;;3.48;96.53
22580;BME280;11456;47.030;15.396;2023-02-19T05:05:05;97634.44;;;3.31;97.09
22580;BME280;11456;47.030;15.396;2023-02-19T05:07:31;97650.63;;;3.15;97.31
22580;BME280;11456;47.030;15.396;2023-02-19T05:09:58;97640.63;;;3.06;98.40
22580;BME280;11456;47.030;15.396;2023-02-19T05:12:25;97635.94;;;2.97;98.72
22580;BME280;11456;47.030;15.396;2023-02-19T05:14:51;97635.19;;;2.95;99.21
22580;BME280;11456;47.030;15.396;2023-02-19T05:17:18;97631.34;;;3.37;99.12
22580;BME280;11456;47.030;15.396;2023-02-19T05:19:44;97637.00;;;3.33;97.78
22580;BME280;11456;47.030;15.396;2023-02-19T05:22:11;97633.91;;;3.39;99.09
22580;BME280;11456;47.030;15.396;2023-02-19T05:24:37;97623.66;;;3.58;97.98
22580;BME280;11456;47.030;15.396;2023-02-19T05:27:04;97629.41;;;3.52;97.93
22580;BME280;11456;47.030;15.396;2023-02-19T05:29:30;97626.19;;;3.47;98.01
22580;BME280;11456;47.030;15.396;2023-02-19T05:31:57;97631.41;;;3.61;97.89
22580;BME280;11456;47.030;15.396;2023-02-19T05:34:24;97625.22;;;3.60;97.95
22580;BME280;11456;47.030;15.396;2023-02-19T05:36:50;97625.88;;;3.64;97.77
22580;BME280;11456;47.030;15.396;2023-02-19T05:39:17;97620.06;;;3.83;97.82
22580;BME280;11456;47.030;15.396;2023-02-19T05:41:43;97621.38;;;3.77;97.78
22580;BME280;11456;47.030;15.396;2023-02-19T05:44:10;97615.78;;;3.80;97.98
22580;BME280;11456;47.030;15.396;2023-02-19T05:46:36;97620.91;;;3.83;97.80
22580;BME280;11456;47.030;15.396;2023-02-19T05:49:03;97631.56;;;3.83;97.96
22580;BME280;11456;47.030;15.396;2023-02-19T05:51:30;97632.72;;;3.79;98.35
22580;BME280;11456;47.030;15.396;2023-02-19T05:53:56;97639.28;;;3.62;98.67
22580;BME280;11456;47.030;15.396;2023-02-19T05:56:33;97639.97;;;4.14;98.02
22580;BME280;11456;47.030;15.396;2023-02-19T05:59:02;97638.59;;;4.32;94.65
22580;BME280;11456;47.030;15.396;2023-02-19T06:01:29;97630.44;;;3.98;96.58
22580;BME280;11456;47.030;15.396;2023-02-19T06:03:56;97648.13;;;3.99;97.15
22580;BME280;11456;47.030;15.396;2023-02-19T06:06:23;97651.13;;;3.95;97.55
22580;BME280;11456;47.030;15.396;2023-02-19T06:08:50;97643.13;;;3.95;97.68
22580;BME280;11456;47.030;15.396;2023-02-19T06:11:17;97644.16;;;4.05;97.96
22580;BME280;11456;47.030;15.396;2023-02-19T06:13:44;97650.03;;;3.97;97.77
22580;BME280;11456;47.030;15.396;2023-02-19T06:16:10;97639.38;;;3.97;98.04
22580;BME280;11456;47.030;15.396;2023-02-19T06:18:37;97656.00;;;4.01;98.00
22580;BME280;11456;47.030;15.396;2023-02-19T06:21:06;97663.38;;;3.97;97.86
22580;BME280;11456;47.030;15.396;2023-02-19T06:23:34;97651.75;;;3.98;98.48
22580;BME280;11456;47.030;15.396;2023-02-19T06:26:04;97656.56;;;3.93;98.02
22580;BME280;11456;47.030;15.396;2023-02-19T06:28:31;97642.13;;;4.32;97.42
22580;BME280;11456;47.030;15.396;2023-02-19T06:30:57;97652.13;;;4.41;95.78
22580;BME280;11456;47.030;15.396;2023-02-19T06:33:25;97655.22;;;4.12;97.12
22580;BME280;11456;47.030;15.396;2023-02-19T06:35:52;97648.47;;;4.19;97.54
22580;BME280;11456;47.030;15.396;2023-02-19T06:38:21;97640.06;;;4.36;97.53
22580;BME280;11456;47.030;15.396;2023-02-19T06:40:48;97637.00;;;4.53;96.23
22580;BME280;11456;47.030;15.396;2023-02-19T06:43:14;97628.75;;;4.56;96.57
22580;BME280;11456;47.030;15.396;2023-02-19T06:45:41;97638.72;;;4.54;96.49
22580;BME280;11456;47.030;15.396;2023-02-19T06:48:07;97649.22;;;4.79;94.61
22580;BME280;11456;47.030;15.396;2023-02-19T06:50:34;97636.38;;;4.50;96.17
22580;BME280;11456;47.030;15.396;2023-02-19T06:53:00;97632.75;;;4.51;96.53
22580;BME280;11456;47.030;15.396;2023-02-19T06:55:27;97632.44;;;4.66;95.89
22580;BME280;11456;47.030;15.396;2023-02-19T06:57:53;97645.03;;;4.64;96.44
22580;BME280;11456;47.030;15.396;2023-02-19T07:00:20;97649.69;;;4.73;96.37
22580;BME280;11456;47.030;15.396;2023-02-19T07:02:46;97654.31;;;4.82;96.71
22580;BME280;11456;47.030;15.396;2023-02-19T07:05:13;97652.66;;;4.93;96.36
22580;BME280;11456;47.030;15.396;2023-02-19T07:07:39;97656.59;;;5.44;92.21
22580;BME280;11456;47.030;15.396;2023-02-19T07:10:06;97649.69;;;5.31;93.16
22580;BME280;11456;47.030;15.396;2023-02-19T07:12:33;97655.63;;;5.12;93.32
22580;BME280;11456;47.030;15.396;2023-02-19T07:14:59;97658.41;;;5.10;94.36
22580;BME280;11456;47.030;15.396;2023-02-19T07:17:25;97656.81;;;5.19;95.13
22580;BME280;11456;47.030;15.396;2023-02-19T07:19:52;97659.47;;;5.19;95.26
22580;BME280;11456;47.030;15.396;2023-02-19T07:22:18;97659.25;;;5.33;94.08
22580;BME280;11456;47.030;15.396;2023-02-19T07:24:45;97669.47;;;5.28;94.72
22580;BME280;11456;47.030;15.396;2023-02-19T07:27:13;97669.47;;;5.39;94.48
22580;BME280;11456;47.030;15.396;2023-02-19T07:29:40;97658.06;;;5.71;93.11
22580;BME280;11456;47.030;15.396;2023-02-19T07:32:06;97647.88;;;5.42;93.08
22580;BME280;11456;47.030;15.396;2023-02-19T07:34:33;97644.84;;;5.47;92.51
22580;BME280;11456;47.030;15.396;2023-02-19T07:36:59;97650.06;;;5.37;92.96
22580;BME280;11456;47.030;15.396;2023-02-19T07:39:26;97652.47;;;5.29;93.44
22580;BME280;11456;47.030;15.396;2023-02-19T07:41:53;97635.22;;;5.22;94.23
22580;BME280;11456;47.030;15.396;2023-02-19T07:44:25;97653.47;;;5.61;94.06
22580;BME280;11456;47.030;15.396;2023-02-19T07:46:52;97634.28;;;6.01;90.67
22580;BME280;11456;47.030;15.396;2023-02-19T07:49:18;97653.69;;;5.81;91.79
22580;BME280;11456;47.030;15.396;2023-02-19T07:51:45;97652.97;;;5.68;92.34
22580;BME280;11456;47.030;15.396;2023-02-19T07:54:12;97655.63;;;5.79;92.65
22580;BME280;11456;47.030;15.396;2023-02-19T07:56:38;97647.16;;;5.62;92.15
22580;BME280;11456;47.030;15.396;2023-02-19T07:59:05;97644.72;;;5.82;92.06
22580;BME280;11456;47.030;15.396;2023-02-19T08:01:31;97656.50;;;6.01;91.99
22580;BME280;11456;47.030;15.396;2023-02-19T08:04:16;97648.72;;;6.41;90.63
22580;BME280;11456;47.030;15.396;2023-02-19T08:06:43;97634.31;;;6.65;88.78
22580;BME280;11456;47.030;15.396;2023-02-19T08:09:09;97624.84;;;6.81;86.59
22580;BME280;11456;47.030;15.396;2023-02-19T08:11:36;97631.66;;;6.54;87.05
22580;BME280;11456;47.030;15.396;2023-02-19T08:14:27;97625.91;;;6.37;88.88
22580;BME280;11456;47.030;15.396;2023-02-19T08:16:54;97629.25;;;6.19;90.27
22580;BME280;11456;47.030;15.396;2023-02-19T08:19:21;97628.34;;;6.29;88.67
22580;BME280;11456;47.030;15.396;2023-02-19T08:21:47;97631.47;;;6.34;88.25
22580;BME280;11456;47.030;15.396;2023-02-19T08:24:14;97639.31;;;6.79;86.93
22580;BME280;11456;47.030;15.396;2023-02-19T08:26:40;97636.06;;;7.68;81.98
22580;BME280;11456;47.030;15.396;2023-02-19T08:29:07;97628.72;;;7.70;79.51
22580;BME280;11456;47.030;15.396;2023-02-19T08:31:33;97618.88;;;7.19;82.71
22580;BME280;11456;47.030;15.396;2023-02-19T08:34:00;97629.56;;;7.10;84.79
22580;BME280;11456;47.030;15.396;2023-02-19T08:36:27;97631.09;;;8.13;79.71
22580;BME280;11456;47.030;15.396;2023-02-19T08:38:53;97631.41;;;7.40;82.94
22580;BME280;11456;47.030;15.396;2023-02-19T08:41:20;97630.97;;;7.35;84.79
22580;BME280;11456;47.030;15.396;2023-02-19T08:43:46;97632.69;;;7.36;84.95
22580;BME280;11456;47.030;15.396;2023-02-19T08:46:13;97629.16;;;7.35;84.77
22580;BME280;11456;47.030;15.396;2023-02-19T08:48:39;97624.44;;;7.58;81.92
22580;BME280;11456;47.030;15.396;2023-02-19T08:51:07;97627.22;;;7.16;83.05
22580;BME280;11456;47.030;15.396;2023-02-19T08:53:36;97626.06;;;7.40;81.88
22580;BME280;11456;47.030;15.396;2023-02-19T08:56:09;97633.09;;;7.10;81.97
22580;BME280;11456;47.030;15.396;2023-02-19T08:58:36;97639.34;;;7.51;81.14
22580;BME280;11456;47.030;15.396;2023-02-19T09:01:07;97629.56;;;7.61;79.90
22580;BME280;11456;47.030;15.396;2023-02-19T09:03:34;97613.19;;;7.64;81.90
22580;BME280;11456;47.030;15.396;2023-02-19T09:06:01;97619.38;;;7.55;81.98
22580;BME280;11456;47.030;15.396;2023-02-19T09:08:28;97614.03;;;7.64;83.00
22580;BME280;11456;47.030;15.396;2023-02-19T09:11:02;97616.13;;;8.51;79.91
22580;BME280;11456;47.030;15.396;2023-02-19T09:13:29;97615.13;;;8.61;76.07
22580;BME280;11456;47.030;15.396;2023-02-19T09:15:56;97625.19;;;9.44;78.16
22580;BME280;11456;47.030;15.396;2023-02-19T09:18:23;97619.78;;;10.18;72.75
22580;BME280;11456;47.030;15.396;2023-02-19T09:20:50;97633.06;;;11.00;66.79
22580;BME280;11456;47.030;15.396;2023-02-19T09:23:16;97628.94;;;11.32;66.20
22580;BME280;11456;47.030;15.396;2023-02-19T09:25:43;97623.53;;;10.88;64.49
22580;BME280;11456;47.030;15.396;2023-02-19T09:28:09;97621.00;;;9.96;68.06
22580;BME280;11456;47.030;15.396;2023-02-19T09:30:36;97625.00;;;11.00;65.45
22580;BME280;11456;47.030;15.396;2023-02-19T09:33:03;97615.38;;;10.62;65.30
22580;BME280;11456;47.030;15.396;2023-02-19T09:35:30;97615.88;;;11.71;61.62
22580;BME280;11456;47.030;15.396;2023-02-19T09:37:58;97615.38;;;12.59;58.11
22580;BME280;11456;47.030;15.396;2023-02-19T09:40:24;97617.19;;;12.42;61.35
22580;BME280;11456;47.030;15.396;2023-02-19T09:42:51;97603.63;;;13.25;56.83
22580;BME280;11456;47.030;15.396;2023-02-19T09:45:20;97605.44;;;12.60;57.00
22580;BME280;11456;47.030;15.396;2023-02-19T09:47:47;97597.88;;;13.04;57.11
22580;BME280;11456;47.030;15.396;2023-02-19T09:50:16;97609.97;;;13.64;56.36
22580;BME280;11456;47.030;15.396;2023-02-19T09:52:50;97597.50;;;14.02;53.75
22580;BME280;11456;47.030;15.396;2023-02-19T09:57:47;97589.09;;;14.90;50.61
22580;BME280;11456;47.030;15.396;2023-02-19T10:00:20;97604.66;;;14.96;50.55
22580;BME280;11456;47.030;15.396;2023-02-19T10:02:51;97607.59;;;15.09;49.71
22580;BME280;11456;47.030;15.396;2023-02-19T10:05:19;97607.38;;;15.71;46.06
22580;BME280;11456;47.030;15.396;2023-02-19T10:07:47;97594.84;;;15.33;45.99
22580;BME280;11456;47.030;15.396;2023-02-19T10:12:47;97603.47;;;15.88;46.90
22580;BME280;11456;47.030;15.396;2023-02-19T10:15:16;97598.22;;;15.72;47.34
22580;BME280;11456;47.030;15.396;2023-02-19T10:17:44;97597.59;;;14.87;47.47
22580;BME280;11456;47.030;15.396;2023-02-19T10:20:14;97595.78;;;15.77;45.11
22580;BME280;11456;47.030;15.396;2023-02-19T10:22:42;97600.81;;;15.28;47.08
22580;BME280;11456;47.030;15.396;2023-02-19T10:25:15;97602.53;;;15.29;46.58
22580;BME280;11456;47.030;15.396;2023-02-19T10:27:42;97596.75;;;15.09;48.93
22580;BME280;11456;47.030;15.396;2023-02-19T10:30:19;97595.03;;;16.13;44.81
22580;BME280;11456;47.030;15.396;2023-02-19T10:35:25;97595.97;;;15.90;44.20
22580;BME280;11456;47.030;15.396;2023-02-19T10:37:52;97598.09;;;16.90;43.19
22580;BME280;11456;47.030;15.396;2023-02-19T10:40:23;97597.19;;;16.32;44.78
22580;BME280;11456;47.030;15.396;2023-02-19T10:42:57;97584.69;;;17.37;42.85
22580;BME280;11456;47.030;15.396;2023-02-19T10:45:29;97578.69;;;17.70;41.15
22580;BME280;11456;47.030;15.396;2023-02-19T10:47:59;97572.47;;;17.27;41.58
22580;BME280;11456;47.030;15.396;2023-02-19T10:50:33;97573.09;;;17.78;41.91
22580;BME280;11456;47.030;15.396;2023-02-19T10:53:02;97559.31;;;18.27;40.14
22580;BME280;11456;47.030;15.396;2023-02-19T10:55:32;97564.88;;;18.06;39.80
22580;BME280;11456;47.030;15.396;2023-02-19T10:58:22;97568.78;;;17.34;40.65
22580;BME280;11456;47.030;15.396;2023-02-19T11:01:13;97557.41;;;17.52;40.76
22580;BME280;11456;47.030;15.396;2023-02-19T11:03:37;97545.50;;;18.28;39.98
22580;BME280;11456;47.030;15.396;2023-02-19T11:06:05;97553.31;;;18.44;39.85
22580;BME280;11456;47.030;15.396;2023-02-19T11:08:47;97546.03;;;17.70;40.82
22580;BME280;11456;47.030;15.396;2023-02-19T11:11:48;97557.91;;;19.05;38.68
22580;BME280;11456;47.030;15.396;2023-02-19T11:14:13;97540.25;;;19.73;38.14
22580;BME280;11456;47.030;15.396;2023-02-19T11:16:44;97542.00;;;20.32;36.04
22580;BME280;11456;47.030;15.396;2023-02-19T11:21:51;97534.63;;;19.55;36.39
22580;BME280;11456;47.030;15.396;2023-02-19T11:24:36;97528.00;;;20.09;37.11
22580;BME280;11456;47.030;15.396;2023-02-19T11:27:06;97531.88;;;19.42;37.69
22580;BME280;11456;47.030;15.396;2023-02-19T11:29:41;97527.53;;;20.12;36.66
22580;BME280;11456;47.030;15.396;2023-02-19T11:32:26;97518.28;;;20.13;36.31
22580;BME280;11456;47.030;15.396;2023-02-19T11:35:14;97513.94;;;20.88;34.58
22580;BME280;11456;47.030;15.396;2023-02-19T11:37:56;97513.88;;;21.75;33.30
22580;BME280;11456;47.030;15.396;2023-02-19T11:43:09;97504.81;;;22.29;33.99
22580;BME280;11456;47.030;15.396;2023-02-19T11:45:47;97504.25;;;22.57;32.44
22580;BME280;11456;47.030;15.396;2023-02-19T11:51:04;97498.19;;;23.38;30.76
22580;BME280;11456;47.030;15.396;2023-02-19T11:53:35;97500.50;;;21.60;31.90
22580;BME280;11456;47.030;15.396;2023-02-19T11:58:39;97507.59;;;21.25;29.72
22580;BME280;11456;47.030;15.396;2023-02-19T12:06:37;97497.00;;;23.46;26.36
22580;BME280;11456;47.030;15.396;2023-02-19T12:11:48;97478.78;;;22.20;26.73
22580;BME280;11456;47.030;15.396;2023-02-19T12:14:40;97497.81;;;23.35;24.42
22580;BME280;11456;47.030;15.396;2023-02-19T12:22:50;97495.59;;;22.90;23.06
22580;BME280;11456;47.030;15.396;2023-02-19T12:35:52;97489.22;;;23.43;24.28
22580;BME280;11456;47.030;15.396;2023-02-19T12:38:24;97493.44;;;23.92;23.76
22580;BME280;11456;47.030;15.396;2023-02-19T12:43:27;97493.94;;;23.12;24.77
22580;BME280;11456;47.030;15.396;2023-02-19T12:51:16;97507.38;;;24.65;22.46
22580;BME280;11456;47.030;15.396;2023-02-19T12:56:22;97484.44;;;23.96;23.52
22580;BME280;11456;47.030;15.396;2023-02-19T12:59:04;97487.06;;;23.45;24.81
22580;BME280;11456;47.030;15.396;2023-02-19T13:01:34;97499.53;;;23.59;24.24
22580;BME280;11456;47.030;15.396;2023-02-19T13:07:32;97489.97;;;23.50;26.05
22580;BME280;11456;47.030;15.396;2023-02-19T13:12:25;97516.41;;;23.86;25.11
22580;BME280;11456;47.030;15.396;2023-02-19T13:15:08;97508.75;;;23.11;26.33
22580;BME280;11456;47.030;15.396;2023-02-19T13:17:52;97510.16;;;22.43;27.51
22580;BME280;11456;47.030;15.396;2023-02-19T13:25:50;97524.44;;;23.23;26.80
22580;BME280;11456;47.030;15.396;2023-02-19T13:30:55;97525.34;;;21.66;29.12
22580;BME280;11456;47.030;15.396;2023-02-19T13:34:04;97527.09;;;22.03;28.30
22580;BME280;11456;47.030;15.396;2023-02-19T13:36:27;97544.03;;;21.93;28.74
22580;BME280;11456;47.030;15.396;2023-02-19T13:38:54;97545.63;;;21.58;29.66
22580;BME280;11456;47.030;15.396;2023-02-19T13:41:34;97546.19;;;20.86;29.94
22580;BME280;11456;47.030;15.396;2023-02-19T13:44:15;97542.16;;;18.33;33.17
22580;BME280;11456;47.030;15.396;2023-02-19T13:46:44;97528.22;;;18.56;33.30
22580;BME280;11456;47.030;15.396;2023-02-19T13:51:53;97535.13;;;18.04;33.82
22580;BME280;11456;47.030;15.396;2023-02-19T13:54:21;97532.59;;;18.57;33.83
22580;BME280;11456;47.030;15.396;2023-02-19T13:56:48;97550.19;;;17.66;35.51
22580;BME280;11456;47.030;15.396;2023-02-19T14:12:00;97562.94;;;18.88;33.69
22580;BME280;11456;47.030;15.396;2023-02-19T14:16:58;97558.31;;;19.21;33.22
22580;BME280;11456;47.030;15.396;2023-02-19T14:19:42;97564.25;;;18.03;34.96
22580;BME280;11456;47.030;15.396;2023-02-19T14:24:55;97575.53;;;19.02;33.44
22580;BME280;11456;47.030;15.396;2023-02-19T14:27:22;97580.16;;;19.08;32.80
22580;BME280;11456;47.030;15.396;2023-02-19T14:29:50;97578.28;;;19.15;33.60
22580;BME280;11456;47.030;15.396;2023-02-19T14:32:18;97576.19;;;19.44;32.54
22580;BME280;11456;47.030;15.396;2023-02-19T14:34:45;97581.66;;;19.44;32.69
22580;BME280;11456;47.030;15.396;2023-02-19T14:37:16;97581.78;;;18.83;33.25
22580;BME280;11456;47.030;15.396;2023-02-19T14:39:43;97588.22;;;18.56;33.57
22580;BME280;11456;47.030;15.396;2023-02-19T14:44:45;97590.94;;;18.56;33.33
22580;BME280;11456;47.030;15.396;2023-02-19T14:47:13;97604.00;;;18.73;32.64
22580;BME280;11456;47.030;15.396;2023-02-19T14:49:51;97600.94;;;19.09;32.23
22580;BME280;11456;47.030;15.396;2023-02-19T14:52:38;97625.88;;;18.80;32.69
22580;BME280;11456;47.030;15.396;2023-02-19T14:55:31;97635.56;;;18.14;33.06
22580;BME280;11456;47.030;15.396;2023-02-19T14:57:55;97639.81;;;18.57;33.25
22580;BME280;11456;47.030;15.396;2023-02-19T15:02:50;97636.81;;;18.87;32.71
22580;BME280;11456;47.030;15.396;2023-02-19T15:05:20;97643.00;;;17.92;34.30
22580;BME280;11456;47.030;15.396;2023-02-19T15:07:46;97634.53;;;17.59;34.69